sensor_id;sensor_type;location;lat;lon;timestamp;P1;durP1;ratioP1;P2;durP2;ratioP2
9773;SDS011;4926;42.670;23.316;2023-09-18T00:02:18;18.30;;;16.48;;
9773;SDS011;4926;42.670;23.316;2023-09-18T00:04:45;21.23;;;17.98;;
9773;SDS011;4926;42.670;23.316;2023-09-18T00:07:15;18.75;;;16.73;;
9773;SDS011;4926;42.670;23.316;2023-09-18T00:09:41;22.13;;;19.90;;
9773;SDS011;4926;42.670;23.316;2023-09-18T00:12:08;22.75;;;20.25;;
9773;SDS011;4926;42.670;23.316;2023-09-18T00:14:37;23.30;;;20.10;;
9773;SDS011;4926;42.670;23.316;2023-09-18T00:17:03;25.70;;;21.65;;
9773;SDS011;4926;42.670;23.316;2023-09-18T00:19:30;24.48;;;21.85;;
9773;SDS011;4926;42.670;23.316;2023-09-18T00:21:58;24.90;;;22.40;;
9773;SDS011;4926;42.670;23.316;2023-09-18T00:24:26;24.45;;;22.08;;
9773;SDS011;4926;42.670;23.316;2023-09-18T00:26:53;25.42;;;22.73;;
9773;SDS011;4926;42.670;23.316;2023-09-18T00:29:19;26.42;;;23.73;;
9773;SDS011;4926;42.670;23.316;2023-09-18T00:31:50;25.67;;;23.25;;
9773;SDS011;4926;42.670;23.316;2023-09-18T00:34:24;27.02;;;24.38;;
9773;SDS011;4926;42.670;23.316;2023-09-18T00:36:50;25.20;;;22.70;;
9773;SDS011;4926;42.670;23.316;2023-09-18T00:39:17;26.15;;;23.52;;
9773;SDS011;4926;42.670;23.316;2023-09-18T00:41:45;26.90;;;24.17;;
9773;SDS011;4926;42.670;23.316;2023-09-18T00:47:13;26.13;;;23.48;;
9773;SDS011;4926;42.670;23.316;2023-09-18T00:49:41;26.92;;;24.20;;
9773;SDS011;4926;42.670;23.316;2023-09-18T00:52:16;27.60;;;24.77;;
9773;SDS011;4926;42.670;23.316;2023-09-18T00:54:46;28.55;;;24.65;;
9773;SDS011;4926;42.670;23.316;2023-09-18T00:57:14;27.17;;;24.42;;
9773;SDS011;4926;42.670;23.316;2023-09-18T00:59:40;27.52;;;24.67;;
9773;SDS011;4926;42.670;23.316;2023-09-18T01:02:07;28.83;;;25.70;;
9773;SDS011;4926;42.670;23.316;2023-09-18T01:04:36;28.50;;;25.25;;
9773;SDS011;4926;42.670;23.316;2023-09-18T01:07:03;29.20;;;24.85;;
9773;SDS011;4926;42.670;23.316;2023-09-18T01:09:33;27.08;;;24.25;;
9773;SDS011;4926;42.670;23.316;2023-09-18T01:12:01;27.20;;;24.50;;
9773;SDS011;4926;42.670;23.316;2023-09-18T01:14:40;28.38;;;25.42;;
9773;SDS011;4926;42.670;23.316;2023-09-18T01:17:10;26.42;;;23.73;;
9773;SDS011;4926;42.670;23.316;2023-09-18T01:19:40;28.25;;;25.35;;
9773;SDS011;4926;42.670;23.316;2023-09-18T01:22:14;27.27;;;24.45;;
9773;SDS011;4926;42.670;23.316;2023-09-18T01:24:44;24.02;;;21.70;;
9773;SDS011;4926;42.670;23.316;2023-09-18T01:27:13;25.55;;;21.05;;
9773;SDS011;4926;42.670;23.316;2023-09-18T01:29:42;21.13;;;18.80;;
9773;SDS011;4926;42.670;23.316;2023-09-18T01:32:09;22.17;;;19.70;;
9773;SDS011;4926;42.670;23.316;2023-09-18T01:34:37;21.30;;;19.05;;
9773;SDS011;4926;42.670;23.316;2023-09-18T01:37:07;21.45;;;19.23;;
9773;SDS011;4926;42.670;23.316;2023-09-18T01:39:36;21.55;;;19.25;;
9773;SDS011;4926;42.670;23.316;2023-09-18T01:42:09;21.63;;;19.35;;
9773;SDS011;4926;42.670;23.316;2023-09-18T01:44:38;24.05;;;21.52;;
9773;SDS011;4926;42.670;23.316;2023-09-18T01:47:08;21.38;;;19.23;;
9773;SDS011;4926;42.670;23.316;2023-09-18T01:49:39;22.85;;;20.65;;
9773;SDS011;4926;42.670;23.316;2023-09-18T01:52:07;23.38;;;19.98;;
9773;SDS011;4926;42.670;23.316;2023-09-18T01:54:37;22.42;;;19.67;;
9773;SDS011;4926;42.670;23.316;2023-09-18T01:57:06;23.08;;;20.10;;
9773;SDS011;4926;42.670;23.316;2023-09-18T01:59:33;22.90;;;19.90;;
9773;SDS011;4926;42.670;23.316;2023-09-18T02:02:00;22.52;;;20.08;;
9773;SDS011;4926;42.670;23.316;2023-09-18T02:04:29;22.02;;;19.75;;
9773;SDS011;4926;42.670;23.316;2023-09-18T02:06:56;21.60;;;19.60;;
9773;SDS011;4926;42.670;23.316;2023-09-18T02:09:23;21.60;;;19.27;;
9773;SDS011;4926;42.670;23.316;2023-09-18T02:11:50;22.00;;;19.80;;
9773;SDS011;4926;42.670;23.316;2023-09-18T02:14:18;21.92;;;19.63;;
9773;SDS011;4926;42.670;23.316;2023-09-18T02:16:44;21.40;;;19.10;;
9773;SDS011;4926;42.670;23.316;2023-09-18T02:19:11;22.75;;;20.42;;
9773;SDS011;4926;42.670;23.316;2023-09-18T02:21:39;23.13;;;20.83;;
9773;SDS011;4926;42.670;23.316;2023-09-18T02:24:07;23.15;;;20.80;;
9773;SDS011;4926;42.670;23.316;2023-09-18T02:26:36;21.70;;;19.50;;
9773;SDS011;4926;42.670;23.316;2023-09-18T02:29:05;21.30;;;19.00;;
9773;SDS011;4926;42.670;23.316;2023-09-18T02:31:36;23.13;;;20.83;;
9773;SDS011;4926;42.670;23.316;2023-09-18T02:34:03;22.90;;;20.33;;
9773;SDS011;4926;42.670;23.316;2023-09-18T02:36:30;23.98;;;21.40;;
9773;SDS011;4926;42.670;23.316;2023-09-18T02:38:59;23.05;;;20.58;;
9773;SDS011;4926;42.670;23.316;2023-09-18T02:41:28;22.75;;;19.88;;
9773;SDS011;4926;42.670;23.316;2023-09-18T02:43:54;23.23;;;20.92;;
9773;SDS011;4926;42.670;23.316;2023-09-18T02:46:21;23.75;;;21.23;;
9773;SDS011;4926;42.670;23.316;2023-09-18T02:48:49;20.75;;;18.65;;
9773;SDS011;4926;42.670;23.316;2023-09-18T02:51:16;22.70;;;19.38;;
9773;SDS011;4926;42.670;23.316;2023-09-18T02:53:47;21.30;;;18.77;;
9773;SDS011;4926;42.670;23.316;2023-09-18T02:56:14;20.58;;;18.30;;
9773;SDS011;4926;42.670;23.316;2023-09-18T02:58:43;22.90;;;18.25;;
9773;SDS011;4926;42.670;23.316;2023-09-18T03:01:10;19.20;;;17.20;;
9773;SDS011;4926;42.670;23.316;2023-09-18T03:03:39;19.95;;;17.30;;
9773;SDS011;4926;42.670;23.316;2023-09-18T03:06:08;20.48;;;16.88;;
9773;SDS011;4926;42.670;23.316;2023-09-18T03:08:35;20.10;;;17.83;;
9773;SDS011;4926;42.670;23.316;2023-09-18T03:11:02;20.00;;;17.83;;
9773;SDS011;4926;42.670;23.316;2023-09-18T03:13:31;21.08;;;17.00;;
9773;SDS011;4926;42.670;23.316;2023-09-18T03:15:58;19.85;;;17.85;;
9773;SDS011;4926;42.670;23.316;2023-09-18T03:18:26;20.77;;;18.58;;
9773;SDS011;4926;42.670;23.316;2023-09-18T03:20:53;21.13;;;18.80;;
9773;SDS011;4926;42.670;23.316;2023-09-18T03:23:24;20.13;;;17.88;;
9773;SDS011;4926;42.670;23.316;2023-09-18T03:25:51;19.55;;;17.05;;
9773;SDS011;4926;42.670;23.316;2023-09-18T03:28:17;19.98;;;17.90;;
9773;SDS011;4926;42.670;23.316;2023-09-18T03:30:44;21.67;;;18.83;;
9773;SDS011;4926;42.670;23.316;2023-09-18T03:33:11;23.33;;;18.23;;
9773;SDS011;4926;42.670;23.316;2023-09-18T03:35:44;22.92;;;18.77;;
9773;SDS011;4926;42.670;23.316;2023-09-18T03:38:15;19.55;;;17.58;;
9773;SDS011;4926;42.670;23.316;2023-09-18T03:40:47;20.85;;;18.58;;
9773;SDS011;4926;42.670;23.316;2023-09-18T03:43:17;20.60;;;18.08;;
9773;SDS011;4926;42.670;23.316;2023-09-18T03:45:44;19.48;;;17.40;;
9773;SDS011;4926;42.670;23.316;2023-09-18T03:48:11;19.27;;;17.38;;
9773;SDS011;4926;42.670;23.316;2023-09-18T03:50:37;21.35;;;18.77;;
9773;SDS011;4926;42.670;23.316;2023-09-18T03:53:04;20.80;;;18.52;;
9773;SDS011;4926;42.670;23.316;2023-09-18T03:55:31;21.60;;;18.75;;
9773;SDS011;4926;42.670;23.316;2023-09-18T03:57:59;20.77;;;18.60;;
9773;SDS011;4926;42.670;23.316;2023-09-18T04:00:26;21.70;;;19.40;;
9773;SDS011;4926;42.670;23.316;2023-09-18T04:02:55;21.27;;;19.15;;
9773;SDS011;4926;42.670;23.316;2023-09-18T04:05:22;22.20;;;19.85;;
9773;SDS011;4926;42.670;23.316;2023-09-18T04:07:49;24.48;;;21.88;;
9773;SDS011;4926;42.670;23.316;2023-09-18T04:10:17;23.48;;;20.98;;
9773;SDS011;4926;42.670;23.316;2023-09-18T04:12:50;24.52;;;21.95;;
9773;SDS011;4926;42.670;23.316;2023-09-18T04:15:19;25.05;;;22.23;;
9773;SDS011;4926;42.670;23.316;2023-09-18T04:17:47;26.92;;;22.48;;
9773;SDS011;4926;42.670;23.316;2023-09-18T04:20:14;26.27;;;23.50;;
9773;SDS011;4926;42.670;23.316;2023-09-18T04:22:42;26.67;;;23.75;;
9773;SDS011;4926;42.670;23.316;2023-09-18T04:25:10;27.73;;;23.60;;
9773;SDS011;4926;42.670;23.316;2023-09-18T04:27:41;27.23;;;23.70;;
9773;SDS011;4926;42.670;23.316;2023-09-18T04:30:08;23.88;;;21.45;;
9773;SDS011;4926;42.670;23.316;2023-09-18T04:32:40;24.08;;;21.55;;
9773;SDS011;4926;42.670;23.316;2023-09-18T04:35:09;28.02;;;23.33;;
9773;SDS011;4926;42.670;23.316;2023-09-18T04:37:36;27.65;;;22.55;;
9773;SDS011;4926;42.670;23.316;2023-09-18T04:42:51;25.80;;;22.98;;
9773;SDS011;4926;42.670;23.316;2023-09-18T04:45:18;26.42;;;22.95;;
9773;SDS011;4926;42.670;23.316;2023-09-18T04:47:46;26.45;;;22.70;;
9773;SDS011;4926;42.670;23.316;2023-09-18T04:50:13;25.55;;;22.75;;
9773;SDS011;4926;42.670;23.316;2023-09-18T04:52:45;30.20;;;22.95;;
9773;SDS011;4926;42.670;23.316;2023-09-18T04:55:12;27.75;;;23.15;;
9773;SDS011;4926;42.670;23.316;2023-09-18T04:57:41;27.80;;;23.38;;
9773;SDS011;4926;42.670;23.316;2023-09-18T05:00:16;44.67;;;28.92;;
9773;SDS011;4926;42.670;23.316;2023-09-18T05:02:54;32.65;;;24.90;;
9773;SDS011;4926;42.670;23.316;2023-09-18T05:05:21;26.55;;;23.83;;
9773;SDS011;4926;42.670;23.316;2023-09-18T05:07:48;28.15;;;22.95;;
9773;SDS011;4926;42.670;23.316;2023-09-18T05:10:20;27.85;;;23.55;;
9773;SDS011;4926;42.670;23.316;2023-09-18T05:12:50;28.65;;;23.95;;
9773;SDS011;4926;42.670;23.316;2023-09-18T05:15:23;30.90;;;24.80;;
9773;SDS011;4926;42.670;23.316;2023-09-18T05:17:51;27.75;;;23.77;;
9773;SDS011;4926;42.670;23.316;2023-09-18T05:20:25;32.72;;;24.63;;
9773;SDS011;4926;42.670;23.316;2023-09-18T05:22:56;25.88;;;21.85;;
9773;SDS011;4926;42.670;23.316;2023-09-18T05:25:27;26.65;;;23.67;;
9773;SDS011;4926;42.670;23.316;2023-09-18T05:27:57;24.38;;;21.88;;
9773;SDS011;4926;42.670;23.316;2023-09-18T05:30:25;31.83;;;24.15;;
9773;SDS011;4926;42.670;23.316;2023-09-18T05:32:54;27.35;;;21.85;;
9773;SDS011;4926;42.670;23.316;2023-09-18T05:35:22;26.70;;;21.73;;
9773;SDS011;4926;42.670;23.316;2023-09-18T05:37:49;26.67;;;22.23;;
9773;SDS011;4926;42.670;23.316;2023-09-18T05:40:17;29.85;;;22.00;;
9773;SDS011;4926;42.670;23.316;2023-09-18T05:42:46;26.10;;;23.30;;
9773;SDS011;4926;42.670;23.316;2023-09-18T05:45:13;26.83;;;22.55;;
9773;SDS011;4926;42.670;23.316;2023-09-18T05:47:41;25.30;;;22.55;;
9773;SDS011;4926;42.670;23.316;2023-09-18T05:50:09;26.25;;;22.20;;
9773;SDS011;4926;42.670;23.316;2023-09-18T05:52:41;27.77;;;22.38;;
9773;SDS011;4926;42.670;23.316;2023-09-18T05:55:09;29.35;;;22.52;;
9773;SDS011;4926;42.670;23.316;2023-09-18T05:57:36;23.98;;;21.25;;
9773;SDS011;4926;42.670;23.316;2023-09-18T06:00:03;25.65;;;20.88;;
9773;SDS011;4926;42.670;23.316;2023-09-18T06:02:31;26.50;;;22.67;;
9773;SDS011;4926;42.670;23.316;2023-09-18T06:04:58;28.55;;;23.95;;
9773;SDS011;4926;42.670;23.316;2023-09-18T06:07:26;23.95;;;21.38;;
9773;SDS011;4926;42.670;23.316;2023-09-18T06:09:54;28.13;;;22.98;;
9773;SDS011;4926;42.670;23.316;2023-09-18T06:12:22;24.52;;;21.27;;
9773;SDS011;4926;42.670;23.316;2023-09-18T06:14:48;26.67;;;23.88;;
9773;SDS011;4926;42.670;23.316;2023-09-18T06:17:15;30.40;;;23.90;;
9773;SDS011;4926;42.670;23.316;2023-09-18T06:19:43;26.98;;;22.63;;
9773;SDS011;4926;42.670;23.316;2023-09-18T06:22:11;28.02;;;22.65;;
9773;SDS011;4926;42.670;23.316;2023-09-18T06:24:39;22.80;;;20.40;;
9773;SDS011;4926;42.670;23.316;2023-09-18T06:27:07;23.23;;;20.83;;
9773;SDS011;4926;42.670;23.316;2023-09-18T06:29:36;25.23;;;21.15;;
9773;SDS011;4926;42.670;23.316;2023-09-18T06:32:04;26.30;;;20.00;;
9773;SDS011;4926;42.670;23.316;2023-09-18T06:34:37;20.58;;;18.48;;
9773;SDS011;4926;42.670;23.316;2023-09-18T06:37:12;22.52;;;18.55;;
9773;SDS011;4926;42.670;23.316;2023-09-18T06:39:41;20.15;;;17.15;;
9773;SDS011;4926;42.670;23.316;2023-09-18T06:42:09;19.50;;;16.60;;
9773;SDS011;4926;42.670;23.316;2023-09-18T06:44:39;19.27;;;17.27;;
9773;SDS011;4926;42.670;23.316;2023-09-18T06:47:06;22.52;;;18.52;;
9773;SDS011;4926;42.670;23.316;2023-09-18T06:49:32;20.13;;;17.77;;
9773;SDS011;4926;42.670;23.316;2023-09-18T06:51:59;22.92;;;17.75;;
9773;SDS011;4926;42.670;23.316;2023-09-18T06:54:26;26.23;;;17.77;;
9773;SDS011;4926;42.670;23.316;2023-09-18T06:56:53;21.75;;;18.10;;
9773;SDS011;4926;42.670;23.316;2023-09-18T06:59:21;20.35;;;16.75;;
9773;SDS011;4926;42.670;23.316;2023-09-18T07:01:48;20.25;;;16.33;;
9773;SDS011;4926;42.670;23.316;2023-09-18T07:04:15;17.05;;;15.20;;
9773;SDS011;4926;42.670;23.316;2023-09-18T07:06:42;19.88;;;17.25;;
9773;SDS011;4926;42.670;23.316;2023-09-18T07:09:08;19.02;;;16.58;;
9773;SDS011;4926;42.670;23.316;2023-09-18T07:11:37;17.15;;;15.45;;
9773;SDS011;4926;42.670;23.316;2023-09-18T07:14:04;19.52;;;16.63;;
9773;SDS011;4926;42.670;23.316;2023-09-18T07:16:33;20.92;;;17.42;;
9773;SDS011;4926;42.670;23.316;2023-09-18T07:19:01;19.05;;;15.75;;
9773;SDS011;4926;42.670;23.316;2023-09-18T07:21:29;18.52;;;15.77;;
9773;SDS011;4926;42.670;23.316;2023-09-18T07:24:00;17.10;;;15.38;;
9773;SDS011;4926;42.670;23.316;2023-09-18T07:26:27;17.15;;;15.05;;
9773;SDS011;4926;42.670;23.316;2023-09-18T07:28:53;17.77;;;15.93;;
9773;SDS011;4926;42.670;23.316;2023-09-18T07:31:20;17.20;;;15.40;;
9773;SDS011;4926;42.670;23.316;2023-09-18T07:33:48;17.50;;;15.80;;
9773;SDS011;4926;42.670;23.316;2023-09-18T07:36:16;20.02;;;15.90;;
9773;SDS011;4926;42.670;23.316;2023-09-18T07:38:43;17.80;;;15.68;;
9773;SDS011;4926;42.670;23.316;2023-09-18T07:41:12;23.60;;;16.65;;
9773;SDS011;4926;42.670;23.316;2023-09-18T07:43:40;21.33;;;17.10;;
9773;SDS011;4926;42.670;23.316;2023-09-18T07:46:07;16.83;;;15.18;;
9773;SDS011;4926;42.670;23.316;2023-09-18T07:48:34;17.33;;;15.52;;
9773;SDS011;4926;42.670;23.316;2023-09-18T07:51:04;16.85;;;15.02;;
9773;SDS011;4926;42.670;23.316;2023-09-18T07:53:39;16.67;;;14.93;;
9773;SDS011;4926;42.670;23.316;2023-09-18T07:56:06;17.73;;;15.77;;
9773;SDS011;4926;42.670;23.316;2023-09-18T07:58:33;18.30;;;16.40;;
9773;SDS011;4926;42.670;23.316;2023-09-18T08:01:03;20.52;;;16.98;;
9773;SDS011;4926;42.670;23.316;2023-09-18T08:03:31;18.30;;;16.48;;
9773;SDS011;4926;42.670;23.316;2023-09-18T08:05:58;18.58;;;15.45;;
9773;SDS011;4926;42.670;23.316;2023-09-18T08:08:30;19.08;;;16.30;;
9773;SDS011;4926;42.670;23.316;2023-09-18T08:11:00;16.33;;;14.68;;
9773;SDS011;4926;42.670;23.316;2023-09-18T08:13:38;17.63;;;15.85;;
9773;SDS011;4926;42.670;23.316;2023-09-18T08:16:06;17.73;;;16.02;;
9773;SDS011;4926;42.670;23.316;2023-09-18T08:18:38;18.27;;;15.43;;
9773;SDS011;4926;42.670;23.316;2023-09-18T08:21:06;16.23;;;14.63;;
9773;SDS011;4926;42.670;23.316;2023-09-18T08:23:35;16.70;;;15.00;;
9773;SDS011;4926;42.670;23.316;2023-09-18T08:26:03;16.25;;;14.60;;
9773;SDS011;4926;42.670;23.316;2023-09-18T08:28:30;17.05;;;15.40;;
9773;SDS011;4926;42.670;23.316;2023-09-18T08:31:00;15.93;;;14.25;;
9773;SDS011;4926;42.670;23.316;2023-09-18T08:33:30;17.50;;;13.73;;
9773;SDS011;4926;42.670;23.316;2023-09-18T08:35:57;17.73;;;15.77;;
9773;SDS011;4926;42.670;23.316;2023-09-18T08:38:24;16.13;;;14.45;;
9773;SDS011;4926;42.670;23.316;2023-09-18T08:40:53;16.30;;;14.63;;
9773;SDS011;4926;42.670;23.316;2023-09-18T08:43:20;16.90;;;14.25;;
9773;SDS011;4926;42.670;23.316;2023-09-18T08:45:50;15.15;;;13.32;;
9773;SDS011;4926;42.670;23.316;2023-09-18T08:48:18;16.00;;;14.30;;
9773;SDS011;4926;42.670;23.316;2023-09-18T08:50:52;14.27;;;12.82;;
9773;SDS011;4926;42.670;23.316;2023-09-18T08:53:19;15.23;;;13.68;;
9773;SDS011;4926;42.670;23.316;2023-09-18T08:55:47;15.00;;;13.60;;
9773;SDS011;4926;42.670;23.316;2023-09-18T08:58:15;20.95;;;14.57;;
9773;SDS011;4926;42.670;23.316;2023-09-18T09:00:44;16.73;;;13.85;;
9773;SDS011;4926;42.670;23.316;2023-09-18T09:03:15;18.15;;;14.27;;
9773;SDS011;4926;42.670;23.316;2023-09-18T09:05:44;15.88;;;13.63;;
9773;SDS011;4926;42.670;23.316;2023-09-18T09:08:11;17.75;;;14.52;;
9773;SDS011;4926;42.670;23.316;2023-09-18T09:10:38;13.73;;;12.32;;
9773;SDS011;4926;42.670;23.316;2023-09-18T09:13:04;13.40;;;12.10;;
9773;SDS011;4926;42.670;23.316;2023-09-18T09:15:44;14.70;;;12.70;;
9773;SDS011;4926;42.670;23.316;2023-09-18T09:18:12;14.30;;;12.82;;
9773;SDS011;4926;42.670;23.316;2023-09-18T09:20:40;12.43;;;11.02;;
9773;SDS011;4926;42.670;23.316;2023-09-18T09:23:08;11.25;;;10.07;;
9773;SDS011;4926;42.670;23.316;2023-09-18T09:25:38;13.27;;;10.80;;
9773;SDS011;4926;42.670;23.316;2023-09-18T09:28:06;14.00;;;10.70;;
9773;SDS011;4926;42.670;23.316;2023-09-18T09:30:34;13.45;;;10.95;;
9773;SDS011;4926;42.670;23.316;2023-09-18T09:33:04;12.85;;;11.52;;
9773;SDS011;4926;42.670;23.316;2023-09-18T09:35:32;12.15;;;10.85;;
9773;SDS011;4926;42.670;23.316;2023-09-18T09:38:00;11.38;;;10.27;;
9773;SDS011;4926;42.670;23.316;2023-09-18T09:40:32;12.27;;;10.80;;
9773;SDS011;4926;42.670;23.316;2023-09-18T09:43:04;11.02;;;9.75;;
9773;SDS011;4926;42.670;23.316;2023-09-18T09:45:34;11.55;;;9.88;;
9773;SDS011;4926;42.670;23.316;2023-09-18T09:48:06;11.93;;;10.63;;
9773;SDS011;4926;42.670;23.316;2023-09-18T09:50:33;11.35;;;10.15;;
9773;SDS011;4926;42.670;23.316;2023-09-18T09:53:11;11.05;;;10.05;;
9773;SDS011;4926;42.670;23.316;2023-09-18T09:55:38;13.75;;;11.52;;
9773;SDS011;4926;42.670;23.316;2023-09-18T09:58:05;12.50;;;11.30;;
9773;SDS011;4926;42.670;23.316;2023-09-18T10:00:36;12.10;;;10.70;;
9773;SDS011;4926;42.670;23.316;2023-09-18T10:03:12;11.60;;;10.45;;
9773;SDS011;4926;42.670;23.316;2023-09-18T10:05:41;12.40;;;9.65;;
9773;SDS011;4926;42.670;23.316;2023-09-18T10:08:10;9.77;;;8.77;;
9773;SDS011;4926;42.670;23.316;2023-09-18T10:10:38;11.70;;;9.75;;
9773;SDS011;4926;42.670;23.316;2023-09-18T10:13:10;11.18;;;9.95;;
9773;SDS011;4926;42.670;23.316;2023-09-18T10:15:39;10.23;;;8.75;;
9773;SDS011;4926;42.670;23.316;2023-09-18T10:18:14;9.90;;;8.02;;
9773;SDS011;4926;42.670;23.316;2023-09-18T10:20:44;9.68;;;8.68;;
9773;SDS011;4926;42.670;23.316;2023-09-18T10:23:18;11.82;;;9.52;;
9773;SDS011;4926;42.670;23.316;2023-09-18T10:25:53;10.07;;;9.07;;
9773;SDS011;4926;42.670;23.316;2023-09-18T10:28:23;9.73;;;8.73;;
9773;SDS011;4926;42.670;23.316;2023-09-18T10:30:53;9.57;;;8.68;;
9773;SDS011;4926;42.670;23.316;2023-09-18T10:33:27;10.00;;;8.90;;
9773;SDS011;4926;42.670;23.316;2023-09-18T10:35:54;9.60;;;8.57;;
9773;SDS011;4926;42.670;23.316;2023-09-18T10:38:26;10.05;;;8.88;;
9773;SDS011;4926;42.670;23.316;2023-09-18T10:40:54;9.98;;;8.95;;
9773;SDS011;4926;42.670;23.316;2023-09-18T10:43:24;10.00;;;8.43;;
9773;SDS011;4926;42.670;23.316;2023-09-18T10:45:50;8.85;;;7.47;;
9773;SDS011;4926;42.670;23.316;2023-09-18T10:48:18;10.48;;;7.28;;
9773;SDS011;4926;42.670;23.316;2023-09-18T10:50:49;7.70;;;6.88;;
9773;SDS011;4926;42.670;23.316;2023-09-18T10:53:18;8.32;;;7.50;;
9773;SDS011;4926;42.670;23.316;2023-09-18T10:55:46;8.02;;;6.82;;
9773;SDS011;4926;42.670;23.316;2023-09-18T10:58:22;7.18;;;6.47;;
9773;SDS011;4926;42.670;23.316;2023-09-18T11:00:50;7.45;;;6.78;;
9773;SDS011;4926;42.670;23.316;2023-09-18T11:03:18;7.43;;;6.72;;
9773;SDS011;4926;42.670;23.316;2023-09-18T11:05:44;9.65;;;7.03;;
9773;SDS011;4926;42.670;23.316;2023-09-18T11:08:26;8.40;;;7.03;;
9773;SDS011;4926;42.670;23.316;2023-09-18T11:10:55;7.43;;;6.80;;
9773;SDS011;4926;42.670;23.316;2023-09-18T11:13:29;8.82;;;6.70;;
9773;SDS011;4926;42.670;23.316;2023-09-18T11:16:01;6.60;;;5.60;;
9773;SDS011;4926;42.670;23.316;2023-09-18T11:18:32;8.98;;;7.82;;
9773;SDS011;4926;42.670;23.316;2023-09-18T11:21:09;9.65;;;6.13;;
9773;SDS011;4926;42.670;23.316;2023-09-18T11:23:46;8.63;;;6.20;;
9773;SDS011;4926;42.670;23.316;2023-09-18T11:26:28;7.43;;;6.20;;
9773;SDS011;4926;42.670;23.316;2023-09-18T11:28:58;7.20;;;5.90;;
9773;SDS011;4926;42.670;23.316;2023-09-18T11:31:42;5.95;;;5.30;;
9773;SDS011;4926;42.670;23.316;2023-09-18T11:34:19;6.25;;;5.30;;
9773;SDS011;4926;42.670;23.316;2023-09-18T11:36:47;6.43;;;5.80;;
9773;SDS011;4926;42.670;23.316;2023-09-18T11:42:08;9.00;;;5.75;;
9773;SDS011;4926;42.670;23.316;2023-09-18T11:44:43;7.90;;;5.93;;
9773;SDS011;4926;42.670;23.316;2023-09-18T11:47:15;6.25;;;5.05;;
9773;SDS011;4926;42.670;23.316;2023-09-18T11:49:48;7.70;;;5.97;;
9773;SDS011;4926;42.670;23.316;2023-09-18T11:52:19;6.95;;;5.68;;
9773;SDS011;4926;42.670;23.316;2023-09-18T11:54:48;5.75;;;5.28;;
9773;SDS011;4926;42.670;23.316;2023-09-18T11:57:17;8.57;;;5.72;;
9773;SDS011;4926;42.670;23.316;2023-09-18T11:59:43;7.53;;;5.78;;
9773;SDS011;4926;42.670;23.316;2023-09-18T12:02:11;7.82;;;5.95;;
9773;SDS011;4926;42.670;23.316;2023-09-18T12:04:45;7.50;;;5.28;;
9773;SDS011;4926;42.670;23.316;2023-09-18T12:07:13;8.25;;;5.90;;
9773;SDS011;4926;42.670;23.316;2023-09-18T12:09:40;6.80;;;5.05;;
9773;SDS011;4926;42.670;23.316;2023-09-18T12:12:08;6.15;;;5.22;;
9773;SDS011;4926;42.670;23.316;2023-09-18T12:14:35;7.20;;;5.40;;
9773;SDS011;4926;42.670;23.316;2023-09-18T12:17:13;8.88;;;8.02;;
9773;SDS011;4926;42.670;23.316;2023-09-18T12:19:49;12.90;;;10.93;;
9773;SDS011;4926;42.670;23.316;2023-09-18T12:22:23;6.28;;;5.65;;
9773;SDS011;4926;42.670;23.316;2023-09-18T12:24:51;6.45;;;5.85;;
9773;SDS011;4926;42.670;23.316;2023-09-18T12:27:22;11.65;;;8.93;;
9773;SDS011;4926;42.670;23.316;2023-09-18T12:29:52;10.77;;;8.52;;
9773;SDS011;4926;42.670;23.316;2023-09-18T12:32:21;11.07;;;6.68;;
9773;SDS011;4926;42.670;23.316;2023-09-18T12:34:51;6.55;;;5.75;;
9773;SDS011;4926;42.670;23.316;2023-09-18T12:37:19;7.25;;;6.50;;
9773;SDS011;4926;42.670;23.316;2023-09-18T12:39:46;11.00;;;6.22;;
9773;SDS011;4926;42.670;23.316;2023-09-18T12:42:17;7.53;;;5.78;;
9773;SDS011;4926;42.670;23.316;2023-09-18T12:44:54;6.85;;;5.40;;
9773;SDS011;4926;42.670;23.316;2023-09-18T12:47:21;6.20;;;5.60;;
9773;SDS011;4926;42.670;23.316;2023-09-18T12:49:50;9.75;;;7.38;;
9773;SDS011;4926;42.670;23.316;2023-09-18T12:52:21;7.88;;;5.78;;
9773;SDS011;4926;42.670;23.316;2023-09-18T12:54:48;6.53;;;5.90;;
9773;SDS011;4926;42.670;23.316;2023-09-18T12:57:19;8.20;;;5.53;;
9773;SDS011;4926;42.670;23.316;2023-09-18T12:59:46;7.95;;;6.15;;
9773;SDS011;4926;42.670;23.316;2023-09-18T13:02:17;6.95;;;5.60;;
9773;SDS011;4926;42.670;23.316;2023-09-18T13:04:50;6.95;;;5.43;;
9773;SDS011;4926;42.670;23.316;2023-09-18T13:07:18;7.63;;;6.30;;
9773;SDS011;4926;42.670;23.316;2023-09-18T13:09:57;6.60;;;5.60;;
9773;SDS011;4926;42.670;23.316;2023-09-18T13:12:25;7.13;;;5.38;;
9773;SDS011;4926;42.670;23.316;2023-09-18T13:15:05;6.22;;;5.63;;
9773;SDS011;4926;42.670;23.316;2023-09-18T13:17:40;6.47;;;5.63;;
9773;SDS011;4926;42.670;23.316;2023-09-18T13:20:10;8.02;;;5.95;;
9773;SDS011;4926;42.670;23.316;2023-09-18T13:22:39;6.80;;;5.75;;
9773;SDS011;4926;42.670;23.316;2023-09-18T13:25:07;8.25;;;5.90;;
9773;SDS011;4926;42.670;23.316;2023-09-18T13:27:36;6.47;;;5.63;;
9773;SDS011;4926;42.670;23.316;2023-09-18T13:30:03;5.38;;;4.88;;
9773;SDS011;4926;42.670;23.316;2023-09-18T13:32:34;6.40;;;5.18;;
9773;SDS011;4926;42.670;23.316;2023-09-18T13:35:05;7.00;;;5.28;;
9773;SDS011;4926;42.670;23.316;2023-09-18T13:37:37;5.93;;;5.15;;
9773;SDS011;4926;42.670;23.316;2023-09-18T13:40:06;6.38;;;5.78;;
9773;SDS011;4926;42.670;23.316;2023-09-18T13:42:34;6.18;;;5.57;;
9773;SDS011;4926;42.670;23.316;2023-09-18T13:45:01;10.65;;;5.65;;
9773;SDS011;4926;42.670;23.316;2023-09-18T13:47:30;7.22;;;5.55;;
9773;SDS011;4926;42.670;23.316;2023-09-18T13:49:57;7.85;;;5.65;;
9773;SDS011;4926;42.670;23.316;2023-09-18T13:52:28;6.68;;;5.20;;
9773;SDS011;4926;42.670;23.316;2023-09-18T13:54:58;6.13;;;5.25;;
9773;SDS011;4926;42.670;23.316;2023-09-18T13:57:27;6.00;;;5.50;;
9773;SDS011;4926;42.670;23.316;2023-09-18T13:59:54;6.18;;;5.50;;
9773;SDS011;4926;42.670;23.316;2023-09-18T14:02:23;11.25;;;5.82;;
9773;SDS011;4926;42.670;23.316;2023-09-18T14:04:52;6.38;;;5.03;;
9773;SDS011;4926;42.670;23.316;2023-09-18T14:07:19;6.70;;;5.63;;
9773;SDS011;4926;42.670;23.316;2023-09-18T14:09:51;6.70;;;5.55;;
9773;SDS011;4926;42.670;23.316;2023-09-18T14:12:19;7.80;;;4.97;;
9773;SDS011;4926;42.670;23.316;2023-09-18T14:14:51;7.95;;;5.43;;
9773;SDS011;4926;42.670;23.316;2023-09-18T14:17:18;8.38;;;5.18;;
9773;SDS011;4926;42.670;23.316;2023-09-18T14:19:46;7.70;;;5.65;;
9773;SDS011;4926;42.670;23.316;2023-09-18T14:22:13;8.20;;;5.60;;
9773;SDS011;4926;42.670;23.316;2023-09-18T14:24:43;6.30;;;5.13;;
9773;SDS011;4926;42.670;23.316;2023-09-18T14:27:14;5.68;;;4.70;;
9773;SDS011;4926;42.670;23.316;2023-09-18T14:29:43;6.40;;;5.32;;
9773;SDS011;4926;42.670;23.316;2023-09-18T14:32:10;8.48;;;5.32;;
9773;SDS011;4926;42.670;23.316;2023-09-18T14:34:37;7.30;;;5.43;;
9773;SDS011;4926;42.670;23.316;2023-09-18T14:37:04;7.32;;;5.35;;
9773;SDS011;4926;42.670;23.316;2023-09-18T14:39:31;6.82;;;5.22;;
9773;SDS011;4926;42.670;23.316;2023-09-18T14:42:09;6.00;;;5.47;;
9773;SDS011;4926;42.670;23.316;2023-09-18T14:44:37;6.40;;;5.55;;
9773;SDS011;4926;42.670;23.316;2023-09-18T14:47:09;7.45;;;5.35;;
9773;SDS011;4926;42.670;23.316;2023-09-18T14:49:36;6.45;;;5.20;;
9773;SDS011;4926;42.670;23.316;2023-09-18T14:52:04;7.70;;;6.43;;
9773;SDS011;4926;42.670;23.316;2023-09-18T14:54:36;8.18;;;5.60;;
9773;SDS011;4926;42.670;23.316;2023-09-18T14:57:05;6.18;;;4.70;;
9773;SDS011;4926;42.670;23.316;2023-09-18T14:59:32;6.35;;;5.20;;
9773;SDS011;4926;42.670;23.316;2023-09-18T15:02:00;6.53;;;5.43;;
9773;SDS011;4926;42.670;23.316;2023-09-18T15:04:28;7.68;;;5.63;;